Time;durP1;ratioP1;P1;durP2;ratioP2;P2;SDS_P1;SDS_P2;PMS_P1;PMS_P2;Temp;Humidity;BMP_temperature;BMP_pressure;BME280_temperature;BME280_humidity;BME280_pressure;Samples;Min_cycle;Max_cycle;Signal;HPM_P1;HPM_P2
2022/05/25 00:02:09;;;;;;;;;;;;;;;-144.99;100.00;52391.03;4970601;28;20404;-75
2022/05/25 00:04:36;;;;;;;;;;;;;;;-144.99;100.00;52393.06;4967242;28;19937;-75
2022/05/25 00:07:03;;;;;;;;;;;;;;;-144.99;100.00;52366.56;4970681;28;19941;-76
2022/05/25 00:09:30;;;;;;;;;;;;;;;-144.99;100.00;52342.09;4971759;28;20028;-75
2022/05/25 00:11:57;;;;;;;;;;;;;;;-144.99;100.00;52362.50;4966150;28;20429;-75
2022/05/25 00:14:24;;;;;;;;;;;;;;;-144.99;100.00;52354.34;4969646;28;20502;-75
2022/05/25 00:16:51;;;;;;;;;;;;;;;-144.99;100.00;52354.34;4966662;28;19941;-75
2022/05/25 00:22:01;;;;;;;;;;;;;;;-144.99;100.00;52366.56;4963000;28;20028;-75
2022/05/25 00:24:28;;;;;;;;;;;;;;;-144.99;100.00;52354.34;4964926;28;19926;-75
2022/05/25 00:26:54;;;;;;;;;;;;;;;-144.99;100.00;52348.22;4970719;28;19926;-74
2022/05/25 00:29:20;;;;;;;;;;;;;;;-144.99;100.00;52358.41;4972944;28;19926;-76
2022/05/25 00:31:48;;;;;;;;;;;;;;;-144.99;100.00;52358.41;4969480;28;19933;-74
2022/05/25 00:34:14;;;;;;;;;;;;;;;-144.99;100.00;52366.56;4967736;28;19938;-75
2022/05/25 00:36:40;;;;;;;;;;;;;;;-144.99;100.00;52354.34;4966726;28;19964;-74
2022/05/25 00:39:07;;;;;;;;;;;;;;;-144.99;100.00;52380.84;4970232;28;19926;-74
2022/05/25 00:41:33;;;;;;;;;;;;;;;-144.99;100.00;52346.19;4974161;28;19965;-73
2022/05/25 00:44:00;;;;;;;;;;;;;;;-144.99;100.00;52362.50;4974056;28;19926;-74
2022/05/25 00:46:27;;;;;;;;;;;;;;;-144.99;100.00;52395.09;4958056;28;19926;-75
2022/05/25 00:48:56;;;;;;;;;;;;;;;-144.99;100.00;52366.56;4969211;28;19945;-72
2022/05/25 00:51:24;;;;;;;;;;;;;;;-144.99;100.00;52342.09;4968327;28;20331;-73
2022/05/25 00:53:53;;;;;;;;;;;;;;;-144.99;100.00;52374.72;4973620;28;19926;-74
2022/05/25 00:56:21;;;;;;;;;;;;;;;-144.99;100.00;52366.56;4971557;28;19932;-74
2022/05/25 00:58:50;;;;;;;;;;;;;;;-144.99;100.00;52338.03;4975344;28;19933;-74
2022/05/25 01:01:16;;;;;;;;;;;;;;;-144.99;100.00;52362.50;4974683;28;20178;-74
2022/05/25 01:03:43;;;;;;;;;;;;;;;-144.99;100.00;52366.56;4969699;28;19937;-73
2022/05/25 01:06:17;;;;;;;;;;;;;;;-144.99;100.00;52338.03;4981266;28;19988;-74
2022/05/25 01:08:46;;;;;;;;;;;;;;;-144.99;100.00;52407.31;4972425;28;19937;-74
2022/05/25 01:11:24;;;;;;;;;;;;;;;-144.99;100.00;52338.03;4973582;28;19938;-74
2022/05/25 01:13:55;;;;;;;;;;;;;;;-144.99;100.00;52382.88;4974280;28;19926;-73
2022/05/25 01:16:26;;;;;;;;;;;;;;;-144.99;100.00;52344.16;4975005;28;19926;-73
2022/05/25 01:18:56;;;;;;;;;;;;;;;-144.99;100.00;52403.25;4970601;28;19937;-73
2022/05/25 01:21:26;;;;;;;;;;;;;;;-144.99;100.00;52356.38;4962893;28;19936;-73
2022/05/25 01:23:57;;;;;;;;;;;;;;;-144.99;100.00;52380.84;4975680;28;19933;-74
2022/05/25 01:26:33;;;;;;;;;;;;;;;-144.99;100.00;52350.25;4975300;28;19933;-76
2022/05/25 01:29:04;;;;;;;;;;;;;;;-144.99;100.00;52378.78;4976020;28;19952;-75
2022/05/25 01:31:37;;;;;;;;;;;;;;;-144.99;100.00;52354.34;4973037;28;19930;-76
2022/05/25 01:34:07;;;;;;;;;;;;;;;-144.99;100.00;52366.56;4974777;28;20413;-74
2022/05/25 01:36:37;;;;;;;;;;;;;;;-144.99;100.00;52372.69;4975088;28;20194;-75
2022/05/25 01:39:06;;;;;;;;;;;;;;;-144.99;100.00;52338.03;4973133;28;19926;-75
2022/05/25 01:41:37;;;;;;;;;;;;;;;-144.99;100.00;52374.72;4966434;28;19930;-74
2022/05/25 01:44:05;;;;;;;;;;;;;;;-144.99;100.00;52388.97;4972364;28;19956;-73
2022/05/25 01:46:35;;;;;;;;;;;;;;;-144.99;100.00;52352.28;4973469;28;19932;-74
2022/05/25 01:49:04;;;;;;;;;;;;;;;-144.99;100.00;52370.63;4975202;28;20385;-74
2022/05/25 01:51:33;;;;;;;;;;;;;;;-144.99;100.00;52366.56;4966430;28;19934;-75
2022/05/25 01:54:01;;;;;;;;;;;;;;;-144.99;100.00;52358.41;4974417;28;19926;-75
2022/05/25 01:56:28;;;;;;;;;;;;;;;-144.99;100.00;52358.41;4972238;28;19938;-75
2022/05/25 01:58:57;;;;;;;;;;;;;;;-144.99;100.00;52370.63;4974528;28;19926;-75
2022/05/25 02:01:23;;;;;;;;;;;;;;;-144.99;100.00;52370.63;4971861;28;20406;-76
2022/05/25 02:06:49;;;;;;;;;;;;;;;-144.99;100.00;52354.34;4974664;28;20506;-76
2022/05/25 02:09:19;;;;;;;;;;;;;;;-144.99;100.00;52407.31;4973848;28;19934;-75
2022/05/25 02:11:47;;;;;;;;;;;;;;;-144.99;100.00;52317.66;4973455;28;20293;-75
2022/05/25 02:14:20;;;;;;;;;;;;;;;-144.99;100.00;52378.78;4968299;28;19930;-75
2022/05/25 02:16:53;;;;;;;;;;;;;;;-144.99;100.00;52378.78;4970355;28;19926;-73
2022/05/25 02:19:24;;;;;;;;;;;;;;;-144.99;100.00;52368.59;4973737;28;19933;-75
2022/05/25 02:21:53;;;;;;;;;;;;;;;-144.99;100.00;52403.25;4973509;28;19972;-75
2022/05/25 02:24:22;;;;;;;;;;;;;;;-144.99;100.00;52336.00;4963142;28;19993;-74
2022/05/25 02:26:52;;;;;;;;;;;;;;;-144.99;100.00;52356.38;4966003;28;19932;-74
2022/05/25 02:29:21;;;;;;;;;;;;;;;-144.99;100.00;52346.19;4979831;28;19955;-76
2022/05/25 02:31:49;;;;;;;;;;;;;;;-144.99;100.00;52386.94;4977982;28;20305;-74
2022/05/25 02:34:17;;;;;;;;;;;;;;;-144.99;100.00;52346.19;4970616;28;20284;-73
2022/05/25 02:36:46;;;;;;;;;;;;;;;-144.99;100.00;52338.03;4973262;28;19937;-74
2022/05/25 02:39:13;;;;;;;;;;;;;;;-144.99;100.00;52366.56;4969559;28;19926;-76
2022/05/25 02:41:42;;;;;;;;;;;;;;;-144.99;100.00;52366.56;4971881;28;20017;-76
2022/05/25 02:44:09;;;;;;;;;;;;;;;-144.99;100.00;52362.50;4970078;28;19933;-76
2022/05/25 02:46:35;;;;;;;;;;;;;;;-144.99;100.00;52333.94;4964962;28;19930;-77
2022/05/25 02:49:02;;;;;;;;;;;;;;;-144.99;100.00;52382.88;4972135;28;19926;-75
2022/05/25 02:51:28;;;;;;;;;;;;;;;-144.99;100.00;52370.63;4961005;28;20334;-73
2022/05/25 02:53:56;;;;;;;;;;;;;;;-144.99;100.00;52382.88;4971820;28;19930;-74
2022/05/25 02:56:22;;;;;;;;;;;;;;;-144.99;100.00;52358.41;4964930;28;19926;-76
2022/05/25 02:58:48;;;;;;;;;;;;;;;-144.99;100.00;52378.78;4971646;28;20423;-75
2022/05/25 03:01:14;;;;;;;;;;;;;;;-144.99;100.00;52344.16;4970980;28;19945;-76
2022/05/25 03:03:41;;;;;;;;;;;;;;;-144.99;100.00;52360.44;4971285;28;20413;-75
2022/05/25 03:06:08;;;;;;;;;;;;;;;-144.99;100.00;52378.78;4967128;28;19926;-75
2022/05/25 03:08:35;;;;;;;;;;;;;;;-144.99;100.00;52376.75;4974006;28;20313;-76
2022/05/25 03:11:03;;;;;;;;;;;;;;;-144.99;100.00;52378.78;4973844;28;19933;-74
2022/05/25 03:13:30;;;;;;;;;;;;;;;-144.99;100.00;52364.53;4973395;28;20420;-76
2022/05/25 03:15:57;;;;;;;;;;;;;;;-144.99;100.00;52356.38;4971076;28;19926;-73
2022/05/25 03:18:23;;;;;;;;;;;;;;;-144.99;100.00;52386.94;4972894;28;19930;-72
2022/05/25 03:20:50;;;;;;;;;;;;;;;-144.99;100.00;52427.72;4972316;28;19926;-73
2022/05/25 03:23:17;;;;;;;;;;;;;;;-144.99;100.00;52376.75;4971444;28;19926;-74
2022/05/25 03:25:43;;;;;;;;;;;;;;;-144.99;100.00;52370.63;4964234;28;20171;-74
2022/05/25 03:28:11;;;;;;;;;;;;;;;-144.99;100.00;52356.38;4962077;28;19927;-74
2022/05/25 03:30:37;;;;;;;;;;;;;;;-144.99;100.00;52354.34;4971949;28;19926;-74
2022/05/25 03:33:04;;;;;;;;;;;;;;;-144.99;100.00;52395.09;4967579;28;19934;-73
2022/05/25 03:35:30;;;;;;;;;;;;;;;-144.99;100.00;52386.94;4970110;28;20479;-73
2022/05/25 03:37:58;;;;;;;;;;;;;;;-144.99;100.00;52411.41;4962261;28;19926;-74
2022/05/25 03:40:25;;;;;;;;;;;;;;;-144.99;100.00;52358.41;4970909;28;20162;-73
2022/05/25 03:42:51;;;;;;;;;;;;;;;-144.99;100.00;52348.22;4971125;28;19926;-73
2022/05/25 03:45:19;;;;;;;;;;;;;;;-144.99;100.00;52391.03;4969554;28;19933;-73
2022/05/25 03:47:45;;;;;;;;;;;;;;;-144.99;100.00;52378.78;4966183;28;19934;-73
2022/05/25 03:50:12;;;;;;;;;;;;;;;-144.99;100.00;52407.31;4970626;28;19926;-73
2022/05/25 03:52:39;;;;;;;;;;;;;;;-144.99;100.00;52340.06;4969384;28;19926;-73
2022/05/25 03:55:06;;;;;;;;;;;;;;;-144.99;100.00;52378.78;4970865;28;20397;-71
2022/05/25 03:57:32;;;;;;;;;;;;;;;-144.99;100.00;52427.72;4968791;28;19976;-72
2022/05/25 03:59:58;;;;;;;;;;;;;;;-144.99;100.00;52411.41;4971043;28;20353;-72
2022/05/25 04:02:26;;;;;;;;;;;;;;;-144.99;100.00;52354.34;4970809;28;19926;-75
2022/05/25 04:05:07;;;;;;;;;;;;;;;-144.99;100.00;52372.69;4964856;28;20083;-74
2022/05/25 04:07:33;;;;;;;;;;;;;;;-144.99;100.00;52384.91;4989044;23;19930;-77
2022/05/25 04:10:00;;;;;;;;;;;;;;;-144.99;100.00;52386.94;4968565;28;19926;-76
2022/05/25 04:12:26;;;;;;;;;;;;;;;-144.99;100.00;52374.72;4976254;28;19930;-76
2022/05/25 04:14:52;;;;;;;;;;;;;;;-144.99;100.00;52350.25;4977361;28;19926;-77
2022/05/25 04:17:19;;;;;;;;;;;;;;;-144.99;100.00;52382.88;4970945;28;20389;-78
2022/05/25 04:19:46;;;;;;;;;;;;;;;-144.99;100.00;52374.72;4946838;29;20409;-74
2022/05/25 04:22:13;;;;;;;;;;;;;;;-144.99;100.00;52382.88;4965167;28;19933;-75
2022/05/25 04:24:39;;;;;;;;;;;;;;;-144.99;100.00;52358.41;4971199;28;19926;-72
2022/05/25 04:27:05;;;;;;;;;;;;;;;-144.99;100.00;52338.03;4965073;28;19930;-77
2022/05/25 04:29:32;;;;;;;;;;;;;;;-144.99;100.00;52366.56;4955087;28;20313;-75
2022/05/25 04:31:58;;;;;;;;;;;;;;;-144.99;100.00;52333.94;4960675;28;19937;-76
2022/05/25 04:34:24;;;;;;;;;;;;;;;-144.99;100.00;52407.31;4954768;28;19927;-74
2022/05/25 04:36:52;;;;;;;;;;;;;;;-144.99;100.00;52362.50;4957903;28;19927;-75
2022/05/25 04:39:18;;;;;;;;;;;;;;;-144.99;100.00;52342.09;4946159;29;19934;-75
2022/05/25 04:41:45;;;;;;;;;;;;;;;-144.99;100.00;52370.63;4947847;29;19987;-75
2022/05/25 04:44:11;;;;;;;;;;;;;;;-144.99;100.00;52329.88;4953658;28;19930;-74
2022/05/25 04:46:37;;;;;;;;;;;;;;;-144.99;100.00;52321.72;4959758;28;19963;-75
2022/05/25 04:49:04;;;;;;;;;;;;;;;-144.99;100.00;52350.25;4962397;28;19965;-74
2022/05/25 04:51:30;;;;;;;;;;;;;;;-144.99;100.00;52370.63;4954558;28;19927;-75
2022/05/25 04:53:58;;;;;;;;;;;;;;;-144.99;100.00;52325.81;4960400;28;20063;-76
2022/05/25 04:59:08;;;;;;;;;;;;;;;-144.99;100.00;52366.56;4957553;28;19982;-75
2022/05/25 05:01:34;;;;;;;;;;;;;;;-144.99;100.00;52340.06;4264928;29;10000771;-75
2022/05/25 05:04:00;;;;;;;;;;;;;;;-144.99;100.00;52323.75;4951355;29;19930;-76
2022/05/25 05:06:26;;;;;;;;;;;;;;;-144.99;100.00;52366.56;4958022;28;19934;-75
2022/05/25 05:08:53;;;;;;;;;;;;;;;-144.99;100.00;52362.50;4954648;28;19971;-75
2022/05/25 05:11:20;;;;;;;;;;;;;;;-144.99;100.00;52362.50;4952322;28;20424;-76
2022/05/25 05:13:47;;;;;;;;;;;;;;;-144.99;100.00;52386.94;4950918;28;19934;-76
2022/05/25 05:16:15;;;;;;;;;;;;;;;-144.99;100.00;52313.56;4961735;28;19931;-77
2022/05/25 05:18:42;;;;;;;;;;;;;;;-144.99;100.00;52311.53;4979152;28;19937;-77
2022/05/25 05:21:09;;;;;;;;;;;;;;;-144.99;100.00;52325.81;4959005;28;20280;-74
2022/05/25 05:23:37;;;;;;;;;;;;;;;-144.99;100.00;52346.19;4964702;28;20043;-76
2022/05/25 05:26:04;;;;;;;;;;;;;;;-144.99;100.00;52384.91;4967276;28;19931;-78
2022/05/25 05:28:32;;;;;;;;;;;;;;;-144.99;100.00;52329.88;4969455;28;19934;-76
2022/05/25 05:31:00;;;;;;;;;;;;;;;-144.99;100.00;52321.72;4957201;28;20317;-76
2022/05/25 05:33:27;;;;;;;;;;;;;;;-144.99;100.00;52313.56;4949894;28;19930;-75
2022/05/25 05:35:56;;;;;;;;;;;;;;;-144.99;100.00;52350.25;4958342;28;19927;-76
2022/05/25 05:38:22;;;;;;;;;;;;;;;-144.99;100.00;52331.91;4963726;28;19930;-75
2022/05/25 05:40:49;;;;;;;;;;;;;;;-144.99;100.00;52354.34;4959741;28;19936;-75
2022/05/25 05:43:16;;;;;;;;;;;;;;;-144.99;100.00;52333.94;4949490;28;19931;-76
2022/05/25 05:45:45;;;;;;;;;;;;;;;-144.99;100.00;52338.03;4952900;28;19933;-75
2022/05/25 05:48:14;;;;;;;;;;;;;;;-144.99;100.00;52313.56;4979698;28;19945;-76
2022/05/25 05:50:41;;;;;;;;;;;;;;;-144.99;100.00;52338.03;4955352;28;19933;-75
2022/05/25 05:53:09;;;;;;;;;;;;;;;-144.99;100.00;52321.72;4955686;28;19930;-76
2022/05/25 05:55:36;;;;;;;;;;;;;;;-144.99;99.53;52342.09;4950826;29;19941;-75
2022/05/25 05:58:03;;;;;;;;;;;;;;;-144.99;98.97;52325.81;4954408;28;20332;-75
2022/05/25 06:00:29;;;;;;;;;;;;;;;-144.99;97.69;52313.56;4950314;29;19933;-76
2022/05/25 06:02:57;;;;;;;;;;;;;;;-144.99;97.67;52301.34;4949959;29;20046;-77
2022/05/25 06:05:24;;;;;;;;;;;;;;;-144.99;97.72;52293.19;4953137;28;19952;-76
2022/05/25 06:07:50;;;;;;;;;;;;;;;-144.99;96.21;52331.91;4953819;28;19942;-76
2022/05/25 06:10:16;;;;;;;;;;;;;;;-144.99;93.42;52346.19;4958015;28;19930;-77
2022/05/25 06:12:43;;;;;;;;;;;;;;;-144.99;92.79;52305.41;4957616;28;20292;-75
2022/05/25 06:20:39;;;;;;;;;;;;;;;-144.99;92.63;52333.94;4946239;29;19941;-76
2022/05/25 06:23:05;;;;;;;;;;;;;;;-144.99;93.37;52285.03;4957570;28;19936;-75
2022/05/25 06:25:31;;;;;;;;;;;;;;;-144.99;91.32;52303.38;4944861;29;20413;-76
2022/05/25 06:27:58;;;;;;;;;;;;;;;-144.99;89.61;52268.72;4958843;28;19938;-77
2022/05/25 06:30:24;;;;;;;;;;;;;;;-144.99;90.09;52331.91;4977442;28;19914;-77
2022/05/25 06:32:51;;;;;;;;;;;;;;;-144.99;90.02;52317.66;4963256;28;19930;-76
2022/05/25 06:35:17;;;;;;;;;;;;;;;-144.99;89.97;52305.41;4945015;28;20014;-75
2022/05/25 06:37:45;;;;;;;;;;;;;;;-144.99;88.25;52321.72;4950477;28;20467;-78
2022/05/25 06:40:11;;;;;;;;;;;;;;;-144.99;88.00;52264.66;4949324;29;20013;-77
2022/05/25 06:42:41;;;;;;;;;;;;;;;-144.99;86.82;52309.50;4950974;29;20345;-76
2022/05/25 06:45:08;;;;;;;;;;;;;;;-144.99;86.21;52297.25;4948783;28;20452;-76
2022/05/25 06:47:35;;;;;;;;;;;;;;;-144.99;87.18;52297.25;4944236;28;19938;-76
2022/05/25 06:50:01;;;;;;;;;;;;;;;-144.99;85.22;52293.19;4955488;28;19941;-75
2022/05/25 06:52:28;;;;;;;;;;;;;;;-144.99;83.52;52317.66;4955947;28;19926;-76
2022/05/25 06:54:56;;;;;;;;;;;;;;;-144.99;83.36;52313.56;4607774;28;10000462;-76
2022/05/25 06:57:25;;;;;;;;;;;;;;;-144.99;79.27;52289.13;4951039;28;19941;-77
2022/05/25 06:59:51;;;;;;;;;;;;;;;-144.99;77.97;52256.50;4944716;28;20322;-76
2022/05/25 07:02:17;;;;;;;;;;;;;;;-144.99;77.80;52278.91;4939809;29;20032;-77
2022/05/25 07:04:44;;;;;;;;;;;;;;;-144.99;76.29;52280.97;4938343;29;19926;-76
2022/05/25 07:07:10;;;;;;;;;;;;;;;-144.99;73.71;52295.22;4947911;29;19930;-77
2022/05/25 07:09:39;;;;;;;;;;;;;;;-144.99;72.00;52311.53;4949705;29;20408;-73
2022/05/25 07:12:07;;;;;;;;;;;;;;;-144.99;71.55;52291.16;4971079;28;19949;-80
2022/05/25 07:14:33;;;;;;;;;;;;;;;-144.99;72.24;52289.13;4960199;29;19934;-76
2022/05/25 07:17:00;;;;;;;;;;;;;;;-144.99;72.54;52293.19;4949535;29;19934;-78
2022/05/25 07:19:26;;;;;;;;;;;;;;;-144.99;71.16;52297.25;4950161;29;19927;-77
2022/05/25 07:21:53;;;;;;;;;;;;;;;-144.99;71.18;52313.56;4949072;29;19989;-80
2022/05/25 07:24:19;;;;;;;;;;;;;;;-144.99;70.01;52280.97;4951857;29;19926;-77
2022/05/25 07:26:46;;;;;;;;;;;;;;;-144.99;70.58;52252.44;4951539;29;20317;-78
2022/05/25 07:29:14;;;;;;;;;;;;;;;-144.99;69.25;52262.63;4946556;28;19993;-78
2022/05/25 07:31:42;;;;;;;;;;;;;;;-144.99;69.35;52278.91;4944828;29;20009;-77
2022/05/25 07:34:11;;;;;;;;;;;;;;;-144.99;68.77;52289.13;4950231;29;19985;-80
2022/05/25 07:36:40;;;;;;;;;;;;;;;-144.99;67.89;52256.50;4950908;29;19933;-79
2022/05/25 07:39:11;;;;;;;;;;;;;;;-144.99;63.88;52285.03;4946039;29;20038;-79
2022/05/25 07:41:39;;;;;;;;;;;;;;;-144.99;63.38;52268.72;4950739;29;19977;-79
2022/05/25 07:44:06;;;;;;;;;;;;;;;-144.99;65.76;52260.56;4948704;28;19941;-79
2022/05/25 07:46:35;;;;;;;;;;;;;;;-144.99;63.80;52268.72;4942796;29;19927;-79
2022/05/25 07:49:01;;;;;;;;;;;;;;;-144.99;63.67;52244.28;4951125;29;20042;-79
2022/05/25 07:51:28;;;;;;;;;;;;;;;-144.99;62.46;52256.50;4947245;29;19945;-76
2022/05/25 07:53:58;;;;;;;;;;;;;;;-144.99;61.15;52223.88;4943460;29;19930;-78
2022/05/25 07:56:25;;;;;;;;;;;;;;;-144.99;61.14;52268.72;4945882;29;19931;-79
2022/05/25 07:58:52;;;;;;;;;;;;;;;-144.99;61.80;52260.56;4945929;29;19981;-77
2022/05/25 08:05:43;;;;;;;;;;;;;;;-144.99;60.91;52297.25;4952536;28;19930;-79
2022/05/25 08:06:53;;;;;;;;;;;;;;;-144.99;59.55;52280.97;4946977;29;20287;-78
2022/05/25 08:09:20;;;;;;;;;;;;;;;-144.99;60.31;52293.19;4960065;28;19937;-79
2022/05/25 08:11:46;;;;;;;;;;;;;;;-144.99;59.98;52258.53;4955583;28;20027;-79
2022/05/25 08:14:12;;;;;;;;;;;;;;;-144.99;57.74;52252.44;4950555;28;19937;-79
2022/05/25 08:16:39;;;;;;;;;;;;;;;-144.99;56.61;52254.47;4953387;28;19930;-80
2022/05/25 08:19:05;;;;;;;;;;;;;;;-144.99;57.36;52272.81;4939892;28;19930;-79
2022/05/25 08:21:33;;;;;;;;;;;;;;;-144.99;57.51;52256.50;4955362;28;19930;-78
2022/05/25 08:23:59;;;;;;;;;;;;;;;-144.99;54.82;52232.03;4942760;29;19934;-78
2022/05/25 08:26:26;;;;;;;;;;;;;;;-144.99;54.75;52256.50;4945252;28;19943;-78
2022/05/25 08:28:52;;;;;;;;;;;;;;;-144.99;55.07;52260.56;4947361;28;20271;-78
2022/05/25 08:31:18;;;;;;;;;;;;;;;-144.99;56.25;52285.03;4949715;29;19977;-78
2022/05/25 08:33:45;;;;;;;;;;;;;;;-144.99;55.66;52232.03;4958116;28;19930;-78
2022/05/25 08:36:11;;;;;;;;;;;;;;;-144.99;55.70;52276.88;4963532;29;19935;-81
2022/05/25 08:38:39;;;;;;;;;;;;;;;-144.99;55.60;52262.63;4959488;28;20026;-77
2022/05/25 08:41:05;;;;;;;;;;;;;;;-144.99;56.02;52291.16;4953253;28;19949;-78
2022/05/25 08:43:35;;;;;;;;;;;;;;;-144.99;54.57;52276.88;4950460;28;19946;-78
2022/05/25 08:46:03;;;;;;;;;;;;;;;-144.99;53.67;52301.34;4945499;29;20013;-78
2022/05/25 08:48:30;;;;;;;;;;;;;;;-144.99;52.48;52280.97;4934010;29;19934;-78
2022/05/25 08:50:59;;;;;;;;;;;;;;;-144.99;51.90;52230.00;4951657;28;19930;-79
2022/05/25 08:53:25;;;;;;;;;;;;;;;-144.99;53.13;52313.56;4948769;28;19931;-78
2022/05/25 08:56:09;;;;;;;;;;;;;;;-144.99;53.33;52260.56;4944648;28;19931;-79
2022/05/25 08:58:40;;;;;;;;;;;;;;;-144.99;53.08;52244.28;4952891;28;19930;-78
2022/05/25 09:01:07;;;;;;;;;;;;;;;-144.99;54.16;52280.97;4953328;28;19926;-77
2022/05/25 09:03:39;;;;;;;;;;;;;;;-144.99;54.30;52248.34;4963055;28;19941;-78
2022/05/25 09:06:08;;;;;;;;;;;;;;;-144.99;52.79;52227.97;4945027;29;19930;-77
2022/05/25 09:08:38;;;;;;;;;;;;;;;-144.99;51.18;52276.88;4939426;29;19934;-78
2022/05/25 09:11:09;;;;;;;;;;;;;;;-144.99;51.70;52232.03;4951414;28;19930;-77
2022/05/25 09:13:38;;;;;;;;;;;;;;;-144.99;50.87;52207.59;4945413;28;19934;-80
2022/05/25 09:16:19;;;;;;;;;;;;;;;-144.99;51.58;52248.34;4945621;28;19927;-82
2022/05/25 09:18:49;;;;;;;;;;;;;;;-144.99;50.69;52268.72;4965191;28;19937;-81
2022/05/25 09:21:19;;;;;;;;;;;;;;;-144.99;50.85;52240.19;4952221;29;19926;-77
2022/05/25 09:23:45;;;;;;;;;;;;;;;-144.99;49.75;52221.84;4951882;29;19999;-79
2022/05/25 09:26:13;;;;;;;;;;;;;;;-144.99;47.70;52215.75;4956838;28;19959;-77
2022/05/25 09:28:42;;;;;;;;;;;;;;;-144.99;49.22;52219.81;4956823;28;20014;-79
2022/05/25 09:31:13;;;;;;;;;;;;;;;-144.99;48.72;52236.13;4960464;28;19934;-78
2022/05/25 09:33:41;;;;;;;;;;;;;;;-144.99;49.80;52240.19;4957728;28;19937;-77
2022/05/25 09:36:09;;;;;;;;;;;;;;;-144.99;48.86;52236.13;4958656;28;20032;-78
2022/05/25 09:38:42;;;;;;;;;;;;;;;-144.99;49.02;52217.78;4946442;28;19937;-78
2022/05/25 09:41:10;;;;;;;;;;;;;;;-144.99;49.11;52234.09;4954441;28;20186;-78
2022/05/25 09:43:38;;;;;;;;;;;;;;;-144.99;48.17;52227.97;4941739;28;19933;-78
2022/05/25 09:46:07;;;;;;;;;;;;;;;-144.99;47.12;52199.44;4945227;28;20373;-78
2022/05/25 09:48:37;;;;;;;;;;;;;;;-144.99;46.93;52256.50;4948786;28;20288;-78
2022/05/25 09:51:07;;;;;;;;;;;;;;;-144.99;44.88;52285.03;4957536;28;19926;-78
2022/05/25 09:53:37;;;;;;;;;;;;;;;-144.99;44.90;52264.66;4944283;28;19937;-79
2022/05/25 09:56:05;;;;;;;;;;;;;;;-144.99;45.69;52234.09;4942099;29;19931;-77
2022/05/25 09:58:34;;;;;;;;;;;;;;;-144.99;47.44;52252.44;4963017;28;19926;-80
2022/05/25 10:01:03;;;;;;;;;;;;;;;-144.99;47.61;52223.88;4971747;28;19934;-78
2022/05/25 10:03:36;;;;;;;;;;;;;;;-144.99;46.84;52227.97;4948681;29;19953;-77
2022/05/25 10:06:15;;;;;;;;;;;;;;;-144.99;46.99;52199.44;4950537;28;20021;-76
2022/05/25 10:08:41;;;;;;;;;;;;;;;-144.99;46.66;52191.28;4955529;28;19941;-79
2022/05/25 10:11:27;;;;;;;;;;;;;;;-144.99;45.27;52203.50;4963318;28;19933;-79
2022/05/25 10:13:55;;;;;;;;;;;;;;;-144.99;45.54;52203.50;4940611;29;20336;-77
2022/05/25 10:16:22;;;;;;;;;;;;;;;-144.99;43.86;52225.94;4959386;28;20413;-77
2022/05/25 10:18:50;;;;;;;;;;;;;;;-144.99;43.62;52158.66;4961336;28;19926;-79
2022/05/25 10:21:24;;;;;;;;;;;;;;;-144.99;44.66;52207.59;4943803;29;20013;-79
2022/05/25 10:23:51;;;;;;;;;;;;;;;-144.99;42.55;52195.34;4942309;29;19938;-80
2022/05/25 10:26:23;;;;;;;;;;;;;;;-144.99;42.26;52195.34;4942146;28;19997;-77
2022/05/25 10:28:53;;;;;;;;;;;;;;;-144.99;43.12;52215.75;4941791;29;19934;-78
2022/05/25 10:37:00;;;;;;;;;;;;;;;-144.99;43.21;52187.19;4939964;29;19934;-76
2022/05/25 10:39:32;;;;;;;;;;;;;;;-144.99;43.79;52191.28;4952749;28;20093;-77
2022/05/25 10:42:00;;;;;;;;;;;;;;;-144.99;42.73;52205.53;4936843;29;19927;-77
2022/05/25 10:44:27;;;;;;;;;;;;;;;-144.99;43.31;52203.50;4939808;29;19927;-77
2022/05/25 10:46:54;;;;;;;;;;;;;;;-144.99;43.15;52185.16;4942415;28;19938;-79
2022/05/25 10:49:24;;;;;;;;;;;;;;;-144.99;43.27;52244.28;4956026;28;19930;-79
2022/05/25 10:51:53;;;;;;;;;;;;;;;-144.99;43.60;52242.22;4953175;28;19934;-79
2022/05/25 10:57:21;;;;;;;;;;;;;;;-144.99;44.16;52268.72;4943991;29;19936;-78
2022/05/25 10:59:51;;;;;;;;;;;;;;;-144.99;44.38;52199.44;4946427;28;19949;-77
2022/05/25 11:02:27;;;;;;;;;;;;;;;-144.99;44.71;52240.19;4956305;28;19930;-79
2022/05/25 11:05:02;;;;;;;;;;;;;;;-144.99;44.21;52252.44;4949148;28;20377;-78
2022/05/25 11:07:32;;;;;;;;;;;;;;;-144.99;44.67;52256.50;4950271;28;19978;-78
2022/05/25 11:10:17;;;;;;;;;;;;;;;-144.99;44.99;52276.88;4956404;28;20394;-78
2022/05/25 11:12:52;;;;;;;;;;;;;;;-144.99;45.44;52191.28;4944288;29;20406;-78
2022/05/25 11:15:22;;;;;;;;;;;;;;;-144.99;45.12;52199.44;4944166;28;19926;-77
2022/05/25 11:18:01;;;;;;;;;;;;;;;-144.99;45.12;52227.97;4936405;29;19991;-79
2022/05/25 11:20:32;;;;;;;;;;;;;;;-144.99;44.15;52179.06;4958784;28;19933;-77
2022/05/25 11:23:20;;;;;;;;;;;;;;;-144.99;44.04;52160.72;4979311;28;19958;-81
2022/05/25 11:25:57;;;;;;;;;;;;;;;-144.99;42.86;52199.44;4940171;29;19930;-77
2022/05/25 11:28:29;;;;;;;;;;;;;;;-144.99;42.43;52170.91;4940568;28;19934;-77
2022/05/25 11:31:08;;;;;;;;;;;;;;;-144.99;42.26;52146.44;4946507;29;19930;-78
2022/05/25 11:33:40;;;;;;;;;;;;;;;-144.99;41.92;52146.44;4944210;29;19934;-81
2022/05/25 11:36:13;;;;;;;;;;;;;;;-144.99;42.79;52203.50;4955425;28;20129;-78
2022/05/25 11:38:53;;;;;;;;;;;;;;;-144.99;41.60;52146.44;4946299;28;19976;-74
2022/05/25 11:41:27;;;;;;;;;;;;;;;-144.99;40.84;52240.19;4955433;28;19933;-78
2022/05/25 11:44:06;;;;;;;;;;;;;;;-144.99;41.14;52166.81;4944475;28;19934;-77
2022/05/25 11:46:40;;;;;;;;;;;;;;;-144.99;41.87;52152.56;4940587;29;20176;-77
2022/05/25 11:49:27;;;;;;;;;;;;;;;-144.99;41.18;52158.66;4947017;29;19933;-78
2022/05/25 11:52:01;;;;;;;;;;;;;;;-144.99;41.36;52187.19;4941317;28;20149;-80
2022/05/25 11:54:38;;;;;;;;;;;;;;;-144.99;40.70;52166.81;4943831;29;20606;-78
2022/05/25 11:57:09;;;;;;;;;;;;;;;-144.99;40.27;52172.94;4945231;29;19935;-78
2022/05/25 11:59:56;;;;;;;;;;;;;;;-144.99;40.55;52174.97;4947128;28;19941;-79
2022/05/25 12:02:30;;;;;;;;;;;;;;;-144.99;40.19;52207.59;4949661;29;19937;-81
2022/05/25 12:05:10;;;;;;;;;;;;;;;-144.99;40.89;52205.53;4973459;28;19915;-80
2022/05/25 12:07:46;;;;;;;;;;;;;;;-144.99;40.69;52195.34;4945863;28;19931;-79
2022/05/25 12:10:27;;;;;;;;;;;;;;;-144.99;40.47;52174.97;4949183;28;19930;-79
2022/05/25 12:12:56;;;;;;;;;;;;;;;-144.99;40.99;52203.50;4948761;28;19931;-79
2022/05/25 12:15:24;;;;;;;;;;;;;;;-144.99;41.47;52203.50;4941922;28;19930;-79
2022/05/25 12:17:55;;;;;;;;;;;;;;;-144.99;40.37;52170.91;4946414;28;19954;-78
2022/05/25 12:20:27;;;;;;;;;;;;;;;-144.99;40.57;52199.44;4953052;28;19946;-79
2022/05/25 12:22:57;;;;;;;;;;;;;;;-144.99;40.35;52162.75;4952210;28;20421;-78
2022/05/25 12:25:24;;;;;;;;;;;;;;;-144.99;39.72;52162.75;4955443;28;20159;-79
2022/05/25 12:27:52;;;;;;;;;;;;;;;-144.99;38.93;52170.91;4948137;28;19933;-80
2022/05/25 12:30:23;;;;;;;;;;;;;;;-144.99;39.37;52154.59;4958546;28;20532;-79
2022/05/25 12:32:49;;;;;;;;;;;;;;;-144.99;39.51;52126.06;4952243;29;19931;-79
2022/05/25 12:35:16;;;;;;;;;;;;;;;-144.99;38.78;52105.69;4950308;29;19934;-79
2022/05/25 12:37:44;;;;;;;;;;;;;;;-144.99;39.84;52146.44;4952501;28;19938;-79
2022/05/25 12:40:13;;;;;;;;;;;;;;;-144.99;38.28;52179.06;4954317;28;19971;-79
2022/05/25 12:42:44;;;;;;;;;;;;;;;-144.99;38.95;52154.59;4963698;28;19970;-79
2022/05/25 12:51:27;;;;;;;;;;;;;;;-144.99;39.04;52146.44;4950415;29;19957;-79
2022/05/25 12:53:58;;;;;;;;;;;;;;;-144.99;38.52;52223.88;4950205;29;20010;-80
2022/05/25 12:56:33;;;;;;;;;;;;;;;-144.99;39.03;52211.66;4946421;28;20661;-79
2022/05/25 12:59:03;;;;;;;;;;;;;;;-144.99;39.37;52203.50;4948001;28;19933;-79
2022/05/25 13:01:31;;;;;;;;;;;;;;;-144.99;39.57;52183.13;4948692;29;19930;-78
2022/05/25 13:04:12;;;;;;;;;;;;;;;-144.99;38.93;52166.81;4953188;28;20179;-79